sensor_id;sensor_type;location;lat;lon;timestamp;pressure;altitude;pressure_sealevel;temperature
18713;BMP280;9485;49.386;8.674;2023-04-08T00:02:42;100793.56;;;11.24
18713;BMP280;9485;49.386;8.674;2023-04-08T00:08:05;100783.41;;;11.32
18713;BMP280;9485;49.386;8.674;2023-04-08T00:13:25;100801.00;;;11.41
18713;BMP280;9485;49.386;8.674;2023-04-08T00:18:46;100776.88;;;11.26
18713;BMP280;9485;49.386;8.674;2023-04-08T00:24:09;100780.84;;;11.34
18713;BMP280;9485;49.386;8.674;2023-04-08T00:29:30;100804.97;;;11.49
18713;BMP280;9485;49.386;8.674;2023-04-08T00:34:51;100806.25;;;11.48
18713;BMP280;9485;49.386;8.674;2023-04-08T00:40:13;100791.19;;;11.37
18713;BMP280;9485;49.386;8.674;2023-04-08T00:45:33;100799.16;;;11.38
18713;BMP280;9485;49.386;8.674;2023-04-08T00:50:54;100807.13;;;11.40
18713;BMP280;9485;49.386;8.674;2023-04-08T00:56:16;100802.28;;;11.40
18713;BMP280;9485;49.386;8.674;2023-04-08T01:01:45;100810.25;;;11.42
18713;BMP280;9485;49.386;8.674;2023-04-08T01:07:14;100805.41;;;11.42
18713;BMP280;9485;49.386;8.674;2023-04-08T01:12:44;100805.41;;;11.42
18713;BMP280;9485;49.386;8.674;2023-04-08T01:18:12;100807.44;;;11.42
18713;BMP280;9485;49.386;8.674;2023-04-08T01:23:42;100807.72;;;11.44
18713;BMP280;9485;49.386;8.674;2023-04-08T01:29:09;100799.75;;;11.42
18713;BMP280;9485;49.386;8.674;2023-04-08T01:34:33;100800.91;;;11.36
18713;BMP280;9485;49.386;8.674;2023-04-08T01:39:55;100801.44;;;11.34
18713;BMP280;9485;49.386;8.674;2023-04-08T01:45:18;100797.25;;;11.30
18713;BMP280;9485;49.386;8.674;2023-04-08T01:50:41;100805.72;;;11.30
18713;BMP280;9485;49.386;8.674;2023-04-08T01:56:06;100797.44;;;11.26
18713;BMP280;9485;49.386;8.674;2023-04-08T02:01:31;100796.59;;;11.21
18713;BMP280;9485;49.386;8.674;2023-04-08T02:06:55;100804.28;;;11.20
18713;BMP280;9485;49.386;8.674;2023-04-08T02:12:16;100800.69;;;11.20
18713;BMP280;9485;49.386;8.674;2023-04-08T02:17:44;100803.50;;;11.20
18713;BMP280;9485;49.386;8.674;2023-04-08T02:23:10;100806.63;;;11.22
18713;BMP280;9485;49.386;8.674;2023-04-08T02:28:34;100808.97;;;11.23
18713;BMP280;9485;49.386;8.674;2023-04-08T02:33:57;100795.03;;;11.20
18713;BMP280;9485;49.386;8.674;2023-04-08T02:39:20;100810.53;;;11.24
18713;BMP280;9485;49.386;8.674;2023-04-08T02:44:42;100815.13;;;11.22
18713;BMP280;9485;49.386;8.674;2023-04-08T02:50:06;100808.50;;;11.10
18713;BMP280;9485;49.386;8.674;2023-04-08T02:55:26;100801.50;;;10.91
18713;BMP280;9485;49.386;8.674;2023-04-08T03:00:47;100795.31;;;10.73
18713;BMP280;9485;49.386;8.674;2023-04-08T03:06:09;100802.22;;;10.57
18713;BMP280;9485;49.386;8.674;2023-04-08T03:11:30;100804.28;;;10.43
18713;BMP280;9485;49.386;8.674;2023-04-08T03:16:50;100817.44;;;10.31
18713;BMP280;9485;49.386;8.674;2023-04-08T03:22:12;100805.41;;;10.22
18713;BMP280;9485;49.386;8.674;2023-04-08T03:27:33;100812.69;;;10.14
18713;BMP280;9485;49.386;8.674;2023-04-08T03:32:54;100807.63;;;10.03
18713;BMP280;9485;49.386;8.674;2023-04-08T03:38:16;100807.53;;;9.98
18713;BMP280;9485;49.386;8.674;2023-04-08T03:43:37;100809.13;;;9.90
18713;BMP280;9485;49.386;8.674;2023-04-08T03:48:57;100808.53;;;9.86
18713;BMP280;9485;49.386;8.674;2023-04-08T03:54:19;100811.47;;;9.91
18713;BMP280;9485;49.386;8.674;2023-04-08T03:59:40;100812.25;;;9.92
18713;BMP280;9485;49.386;8.674;2023-04-08T04:05:01;100806.56;;;10.01
18713;BMP280;9485;49.386;8.674;2023-04-08T04:10:23;100825.94;;;10.08
18713;BMP280;9485;49.386;8.674;2023-04-08T04:15:43;100824.19;;;10.10
18713;BMP280;9485;49.386;8.674;2023-04-08T04:21:05;100839.47;;;10.18
18713;BMP280;9485;49.386;8.674;2023-04-08T04:26:27;100824.72;;;10.23
18713;BMP280;9485;49.386;8.674;2023-04-08T04:31:47;100833.25;;;10.29
18713;BMP280;9485;49.386;8.674;2023-04-08T04:37:08;100833.38;;;10.34
18713;BMP280;9485;49.386;8.674;2023-04-08T04:42:31;100838.06;;;10.37
18713;BMP280;9485;49.386;8.674;2023-04-08T04:47:51;100842.91;;;10.37
18713;BMP280;9485;49.386;8.674;2023-04-08T04:53:12;100848.09;;;10.38
18713;BMP280;9485;49.386;8.674;2023-04-08T04:58:34;100845.09;;;10.42
18713;BMP280;9485;49.386;8.674;2023-04-08T05:03:54;100852.56;;;10.45
18713;BMP280;9485;49.386;8.674;2023-04-08T05:09:15;100852.38;;;10.48
18713;BMP280;9485;49.386;8.674;2023-04-08T05:14:37;100844.50;;;10.52
18713;BMP280;9485;49.386;8.674;2023-04-08T05:19:59;100855.31;;;10.53
18713;BMP280;9485;49.386;8.674;2023-04-08T05:25:21;100858.25;;;10.59
18713;BMP280;9485;49.386;8.674;2023-04-08T05:30:48;100856.75;;;10.63
18713;BMP280;9485;49.386;8.674;2023-04-08T05:36:10;100862.63;;;10.74
18713;BMP280;9485;49.386;8.674;2023-04-08T05:41:30;100870.50;;;10.85
18713;BMP280;9485;49.386;8.674;2023-04-08T05:46:53;100873.72;;;10.92
18713;BMP280;9485;49.386;8.674;2023-04-08T05:52:16;100874.38;;;11.02
18713;BMP280;9485;49.386;8.674;2023-04-08T05:57:37;100889.47;;;11.13
18713;BMP280;9485;49.386;8.674;2023-04-08T06:03:00;100879.13;;;11.24
18713;BMP280;9485;49.386;8.674;2023-04-08T06:08:20;100892.66;;;11.49
18713;BMP280;9485;49.386;8.674;2023-04-08T06:13:42;100901.88;;;11.64
18713;BMP280;9485;49.386;8.674;2023-04-08T06:19:05;100894.19;;;11.65
18713;BMP280;9485;49.386;8.674;2023-04-08T06:24:26;100903.03;;;11.72
18713;BMP280;9485;49.386;8.674;2023-04-08T06:29:47;100899.22;;;11.75
18713;BMP280;9485;49.386;8.674;2023-04-08T06:35:11;100913.97;;;11.99
18713;BMP280;9485;49.386;8.674;2023-04-08T06:40:31;100905.63;;;12.30
18713;BMP280;9485;49.386;8.674;2023-04-08T06:45:53;100908.72;;;12.77
18713;BMP280;9485;49.386;8.674;2023-04-08T06:51:15;100923.94;;;12.99
18713;BMP280;9485;49.386;8.674;2023-04-08T06:56:36;100891.09;;;12.87
18713;BMP280;9485;49.386;8.674;2023-04-08T07:01:58;100928.31;;;13.26
18713;BMP280;9485;49.386;8.674;2023-04-08T07:07:20;100926.47;;;13.53
18713;BMP280;9485;49.386;8.674;2023-04-08T07:12:43;100940.97;;;14.03
18713;BMP280;9485;49.386;8.674;2023-04-08T07:18:04;100945.09;;;14.49
18713;BMP280;9485;49.386;8.674;2023-04-08T07:23:26;100944.47;;;14.98
18713;BMP280;9485;49.386;8.674;2023-04-08T07:28:46;100964.66;;;15.16
18713;BMP280;9485;49.386;8.674;2023-04-08T07:34:08;100954.09;;;15.55
18713;BMP280;9485;49.386;8.674;2023-04-08T07:39:30;100967.31;;;15.85
18713;BMP280;9485;49.386;8.674;2023-04-08T07:44:51;100975.84;;;15.85
18713;BMP280;9485;49.386;8.674;2023-04-08T07:50:13;100968.38;;;15.71
18713;BMP280;9485;49.386;8.674;2023-04-08T07:55:35;100966.56;;;15.57
18713;BMP280;9485;49.386;8.674;2023-04-08T08:00:55;100980.00;;;15.62
18713;BMP280;9485;49.386;8.674;2023-04-08T08:06:17;100972.94;;;16.29
18713;BMP280;9485;49.386;8.674;2023-04-08T08:11:39;100971.56;;;17.43
18713;BMP280;9485;49.386;8.674;2023-04-08T08:17:02;100959.25;;;18.60
18713;BMP280;9485;49.386;8.674;2023-04-08T08:22:22;100967.22;;;19.40
18713;BMP280;9485;49.386;8.674;2023-04-08T08:27:45;100981.13;;;20.38
18713;BMP280;9485;49.386;8.674;2023-04-08T08:33:08;100995.59;;;20.71
18713;BMP280;9485;49.386;8.674;2023-04-08T08:38:29;100997.28;;;21.25
18713;BMP280;9485;49.386;8.674;2023-04-08T08:43:53;101011.69;;;21.99
18713;BMP280;9485;49.386;8.674;2023-04-08T08:49:14;101019.75;;;21.81
18713;BMP280;9485;49.386;8.674;2023-04-08T08:54:35;101015.38;;;21.33
18713;BMP280;9485;49.386;8.674;2023-04-08T08:59:57;100979.91;;;20.72
18713;BMP280;9485;49.386;8.674;2023-04-08T09:10:39;101017.66;;;20.63
18713;BMP280;9485;49.386;8.674;2023-04-08T09:16:03;101017.53;;;20.42
18713;BMP280;9485;49.386;8.674;2023-04-08T09:21:24;101020.88;;;20.34
18713;BMP280;9485;49.386;8.674;2023-04-08T09:26:46;101016.34;;;20.38
18713;BMP280;9485;49.386;8.674;2023-04-08T09:32:08;101020.28;;;20.22
18713;BMP280;9485;49.386;8.674;2023-04-08T09:37:29;101017.25;;;20.02
18713;BMP280;9485;49.386;8.674;2023-04-08T09:42:52;101014.72;;;19.98
18713;BMP280;9485;49.386;8.674;2023-04-08T09:48:21;101019.31;;;19.88
18713;BMP280;9485;49.386;8.674;2023-04-08T09:53:47;101014.94;;;19.69
18713;BMP280;9485;49.386;8.674;2023-04-08T09:59:14;100994.16;;;19.50
18713;BMP280;9485;49.386;8.674;2023-04-08T10:04:40;101008.22;;;19.48
18713;BMP280;9485;49.386;8.674;2023-04-08T10:10:05;101017.13;;;19.08
18713;BMP280;9485;49.386;8.674;2023-04-08T10:15:28;101013.44;;;18.71
18713;BMP280;9485;49.386;8.674;2023-04-08T10:20:50;101011.50;;;18.36
18713;BMP280;9485;49.386;8.674;2023-04-08T10:26:30;101009.44;;;18.08
18713;BMP280;9485;49.386;8.674;2023-04-08T10:31:52;101016.13;;;17.86
18713;BMP280;9485;49.386;8.674;2023-04-08T10:37:14;101013.75;;;17.61
18713;BMP280;9485;49.386;8.674;2023-04-08T10:42:35;101019.84;;;17.41
18713;BMP280;9485;49.386;8.674;2023-04-08T10:47:55;101019.97;;;17.19
18713;BMP280;9485;49.386;8.674;2023-04-08T10:53:23;101020.88;;;16.98
18713;BMP280;9485;49.386;8.674;2023-04-08T10:58:48;101019.31;;;16.97
18713;BMP280;9485;49.386;8.674;2023-04-08T11:04:12;101018.03;;;16.92
18713;BMP280;9485;49.386;8.674;2023-04-08T11:09:34;101020.69;;;16.85
18713;BMP280;9485;49.386;8.674;2023-04-08T11:14:56;101019.34;;;16.91
18713;BMP280;9485;49.386;8.674;2023-04-08T11:20:17;101014.06;;;17.06
18713;BMP280;9485;49.386;8.674;2023-04-08T11:25:39;101004.75;;;17.06
18713;BMP280;9485;49.386;8.674;2023-04-08T11:31:01;101005.97;;;17.16
18713;BMP280;9485;49.386;8.674;2023-04-08T11:36:22;101005.66;;;17.25
18713;BMP280;9485;49.386;8.674;2023-04-08T11:41:44;101010.56;;;17.35
18713;BMP280;9485;49.386;8.674;2023-04-08T11:47:04;101011.13;;;17.63
18713;BMP280;9485;49.386;8.674;2023-04-08T11:52:43;100997.00;;;17.76
18713;BMP280;9485;49.386;8.674;2023-04-08T11:58:06;101010.34;;;17.97
18713;BMP280;9485;49.386;8.674;2023-04-08T12:03:26;101011.69;;;18.20
18713;BMP280;9485;49.386;8.674;2023-04-08T12:08:47;101006.69;;;18.50
18713;BMP280;9485;49.386;8.674;2023-04-08T12:14:09;101003.19;;;18.81
18713;BMP280;9485;49.386;8.674;2023-04-08T12:19:30;101014.47;;;18.91
18713;BMP280;9485;49.386;8.674;2023-04-08T12:24:51;101000.94;;;18.92
18713;BMP280;9485;49.386;8.674;2023-04-08T12:30:14;101006.19;;;19.12
18713;BMP280;9485;49.386;8.674;2023-04-08T12:35:35;101008.63;;;19.21
18713;BMP280;9485;49.386;8.674;2023-04-08T12:40:56;100998.97;;;19.24
18713;BMP280;9485;49.386;8.674;2023-04-08T12:46:18;100997.34;;;19.47
18713;BMP280;9485;49.386;8.674;2023-04-08T12:51:40;101006.34;;;19.69
18713;BMP280;9485;49.386;8.674;2023-04-08T12:57:00;101002.38;;;19.72
18713;BMP280;9485;49.386;8.674;2023-04-08T13:02:23;101000.72;;;19.76
18713;BMP280;9485;49.386;8.674;2023-04-08T13:07:45;101000.53;;;20.19
18713;BMP280;9485;49.386;8.674;2023-04-08T13:13:06;100983.53;;;20.98
18713;BMP280;9485;49.386;8.674;2023-04-08T13:18:29;100999.25;;;22.04
18713;BMP280;9485;49.386;8.674;2023-04-08T13:23:49;100999.00;;;23.49
18713;BMP280;9485;49.386;8.674;2023-04-08T13:29:10;100996.97;;;24.46
18713;BMP280;9485;49.386;8.674;2023-04-08T13:34:33;100989.69;;;25.14
18713;BMP280;9485;49.386;8.674;2023-04-08T13:39:53;100991.47;;;25.42
18713;BMP280;9485;49.386;8.674;2023-04-08T13:45:15;100998.66;;;25.65
18713;BMP280;9485;49.386;8.674;2023-04-08T13:50:38;100992.31;;;25.67
18713;BMP280;9485;49.386;8.674;2023-04-08T13:55:59;100993.19;;;25.45
18713;BMP280;9485;49.386;8.674;2023-04-08T14:01:19;100982.28;;;24.74
18713;BMP280;9485;49.386;8.674;2023-04-08T14:06:42;100985.03;;;23.83
18713;BMP280;9485;49.386;8.674;2023-04-08T14:12:03;100990.28;;;22.91
18713;BMP280;9485;49.386;8.674;2023-04-08T14:17:24;100981.63;;;22.28
18713;BMP280;9485;49.386;8.674;2023-04-08T14:22:47;100982.16;;;22.47
18713;BMP280;9485;49.386;8.674;2023-04-08T14:28:08;100963.50;;;23.04
18713;BMP280;9485;49.386;8.674;2023-04-08T14:33:29;100975.28;;;23.28
18713;BMP280;9485;49.386;8.674;2023-04-08T14:38:52;100976.03;;;22.86
18713;BMP280;9485;49.386;8.674;2023-04-08T14:44:13;100980.28;;;22.01
18713;BMP280;9485;49.386;8.674;2023-04-08T14:49:34;100985.38;;;21.21
18713;BMP280;9485;49.386;8.674;2023-04-08T14:54:56;100984.34;;;20.47
18713;BMP280;9485;49.386;8.674;2023-04-08T15:00:21;100975.94;;;19.79
18713;BMP280;9485;49.386;8.674;2023-04-08T15:05:44;100985.41;;;19.24
18713;BMP280;9485;49.386;8.674;2023-04-08T15:11:06;100990.97;;;18.80
18713;BMP280;9485;49.386;8.674;2023-04-08T15:16:28;100983.25;;;18.51
18713;BMP280;9485;49.386;8.674;2023-04-08T15:21:48;100992.81;;;18.35
18713;BMP280;9485;49.386;8.674;2023-04-08T15:27:10;100992.56;;;18.33
18713;BMP280;9485;49.386;8.674;2023-04-08T15:32:31;101001.44;;;18.30
18713;BMP280;9485;49.386;8.674;2023-04-08T15:37:52;100996.56;;;18.25
18713;BMP280;9485;49.386;8.674;2023-04-08T15:43:14;100998.28;;;18.33
18713;BMP280;9485;49.386;8.674;2023-04-08T15:48:35;100995.28;;;18.44
18713;BMP280;9485;49.386;8.674;2023-04-08T15:53:56;100997.13;;;18.66
18713;BMP280;9485;49.386;8.674;2023-04-08T15:59:18;100996.13;;;18.82
18713;BMP280;9485;49.386;8.674;2023-04-08T16:04:39;101011.69;;;18.86
18713;BMP280;9485;49.386;8.674;2023-04-08T16:10:01;101008.91;;;18.81
18713;BMP280;9485;49.386;8.674;2023-04-08T16:15:23;101022.69;;;18.58
18713;BMP280;9485;49.386;8.674;2023-04-08T16:20:44;101016.59;;;18.19
18713;BMP280;9485;49.386;8.674;2023-04-08T16:26:06;101026.25;;;17.87
18713;BMP280;9485;49.386;8.674;2023-04-08T16:31:29;101004.69;;;17.57
18713;BMP280;9485;49.386;8.674;2023-04-08T16:36:50;101019.00;;;17.51
18713;BMP280;9485;49.386;8.674;2023-04-08T16:42:11;101032.28;;;17.43
18713;BMP280;9485;49.386;8.674;2023-04-08T16:47:34;101028.72;;;17.32
18713;BMP280;9485;49.386;8.674;2023-04-08T16:52:55;101030.38;;;17.17
18713;BMP280;9485;49.386;8.674;2023-04-08T16:58:16;101039.28;;;17.02
18713;BMP280;9485;49.386;8.674;2023-04-08T17:03:38;101049.41;;;16.92
18713;BMP280;9485;49.386;8.674;2023-04-08T17:09:00;101041.19;;;16.78
18713;BMP280;9485;49.386;8.674;2023-04-08T17:14:22;101060.91;;;16.76
18713;BMP280;9485;49.386;8.674;2023-04-08T17:19:44;101060.91;;;16.70
18713;BMP280;9485;49.386;8.674;2023-04-08T17:25:07;101070.00;;;16.63
18713;BMP280;9485;49.386;8.674;2023-04-08T17:30:28;101073.16;;;16.55
18713;BMP280;9485;49.386;8.674;2023-04-08T17:35:51;101064.88;;;16.46
18713;BMP280;9485;49.386;8.674;2023-04-08T17:41:12;101069.28;;;16.36
18713;BMP280;9485;49.386;8.674;2023-04-08T17:46:33;101073.44;;;16.24
18713;BMP280;9485;49.386;8.674;2023-04-08T17:51:55;101086.13;;;16.17
18713;BMP280;9485;49.386;8.674;2023-04-08T17:57:16;101080.72;;;16.08
18713;BMP280;9485;49.386;8.674;2023-04-08T18:02:37;101091.81;;;16.01
18713;BMP280;9485;49.386;8.674;2023-04-08T18:08:01;101099.34;;;15.93
18713;BMP280;9485;49.386;8.674;2023-04-08T18:13:22;101108.16;;;15.84
18713;BMP280;9485;49.386;8.674;2023-04-08T18:18:43;101089.97;;;15.65
18713;BMP280;9485;49.386;8.674;2023-04-08T18:24:05;101116.91;;;15.70
18713;BMP280;9485;49.386;8.674;2023-04-08T18:29:26;101113.81;;;15.62
18713;BMP280;9485;49.386;8.674;2023-04-08T18:34:49;101119.47;;;15.57
18713;BMP280;9485;49.386;8.674;2023-04-08T18:40:12;101120.00;;;15.50
18713;BMP280;9485;49.386;8.674;2023-04-08T18:45:33;101124.63;;;15.42
18713;BMP280;9485;49.386;8.674;2023-04-08T18:50:54;101125.91;;;15.35
18713;BMP280;9485;49.386;8.674;2023-04-08T18:56:18;101123.81;;;15.25
18713;BMP280;9485;49.386;8.674;2023-04-08T19:01:39;101106.09;;;15.04
18713;BMP280;9485;49.386;8.674;2023-04-08T19:06:59;101138.72;;;15.14
18713;BMP280;9485;49.386;8.674;2023-04-08T19:12:22;101148.00;;;15.09
18713;BMP280;9485;49.386;8.674;2023-04-08T19:17:42;101154.16;;;15.02
18713;BMP280;9485;49.386;8.674;2023-04-08T19:23:03;101164.22;;;14.98
18713;BMP280;9485;49.386;8.674;2023-04-08T19:28:25;101127.66;;;14.75
18713;BMP280;9485;49.386;8.674;2023-04-08T19:33:47;101165.75;;;14.88
18713;BMP280;9485;49.386;8.674;2023-04-08T19:39:07;101166.75;;;14.85
18713;BMP280;9485;49.386;8.674;2023-04-08T19:44:29;101169.34;;;14.83
18713;BMP280;9485;49.386;8.674;2023-04-08T19:49:50;101174.22;;;14.83
18713;BMP280;9485;49.386;8.674;2023-04-08T19:55:11;101177.06;;;14.83
18713;BMP280;9485;49.386;8.674;2023-04-08T20:00:33;101180.66;;;14.78
18713;BMP280;9485;49.386;8.674;2023-04-08T20:06:00;101176.50;;;14.73
18713;BMP280;9485;49.386;8.674;2023-04-08T20:11:21;101185.53;;;14.72
18713;BMP280;9485;49.386;8.674;2023-04-08T20:16:43;101177.50;;;14.70
18713;BMP280;9485;49.386;8.674;2023-04-08T20:22:04;101184.50;;;14.69
18713;BMP280;9485;49.386;8.674;2023-04-08T20:27:25;101184.22;;;14.67
18713;BMP280;9485;49.386;8.674;2023-04-08T20:32:47;101184.44;;;14.64
18713;BMP280;9485;49.386;8.674;2023-04-08T20:38:08;101170.13;;;14.53
18713;BMP280;9485;49.386;8.674;2023-04-08T20:43:29;101172.16;;;14.41
18713;BMP280;9485;49.386;8.674;2023-04-08T20:48:51;101171.28;;;14.35
18713;BMP280;9485;49.386;8.674;2023-04-08T20:54:12;101155.16;;;14.16
18713;BMP280;9485;49.386;8.674;2023-04-08T20:59:33;101178.69;;;14.22
18713;BMP280;9485;49.386;8.674;2023-04-08T21:04:55;101171.91;;;14.14
18713;BMP280;9485;49.386;8.674;2023-04-08T21:10:16;101170.25;;;14.08
18713;BMP280;9485;49.386;8.674;2023-04-08T21:15:37;101178.47;;;14.00
18713;BMP280;9485;49.386;8.674;2023-04-08T21:20:59;101173.72;;;13.92
18713;BMP280;9485;49.386;8.674;2023-04-08T21:26:20;101174.19;;;13.85
18713;BMP280;9485;49.386;8.674;2023-04-08T21:31:41;101173.34;;;13.79
18713;BMP280;9485;49.386;8.674;2023-04-08T21:37:03;101178.44;;;13.75
18713;BMP280;9485;49.386;8.674;2023-04-08T21:42:24;101186.91;;;13.69
18713;BMP280;9485;49.386;8.674;2023-04-08T21:47:45;101191.53;;;13.67
18713;BMP280;9485;49.386;8.674;2023-04-08T21:53:10;101151.31;;;13.48
18713;BMP280;9485;49.386;8.674;2023-04-08T21:58:30;101183.50;;;13.65
18713;BMP280;9485;49.386;8.674;2023-04-08T22:03:52;101177.28;;;13.61
18713;BMP280;9485;49.386;8.674;2023-04-08T22:09:15;101187.91;;;13.66
18713;BMP280;9485;49.386;8.674;2023-04-08T22:14:35;101190.25;;;13.68
18713;BMP280;9485;49.386;8.674;2023-04-08T22:19:56;101170.81;;;13.61
18713;BMP280;9485;49.386;8.674;2023-04-08T22:25:18;101184.03;;;13.64
18713;BMP280;9485;49.386;8.674;2023-04-08T22:30:39;101185.81;;;13.61
18713;BMP280;9485;49.386;8.674;2023-04-08T22:36:00;101177.50;;;13.58
18713;BMP280;9485;49.386;8.674;2023-04-08T22:41:22;101176.16;;;13.53
18713;BMP280;9485;49.386;8.674;2023-04-08T22:46:44;101175.03;;;13.46
18713;BMP280;9485;49.386;8.674;2023-04-08T22:52:04;101180.41;;;13.44
18713;BMP280;9485;49.386;8.674;2023-04-08T22:57:26;101178.00;;;13.37
18713;BMP280;9485;49.386;8.674;2023-04-08T23:02:47;101182.72;;;13.40
18713;BMP280;9485;49.386;8.674;2023-04-08T23:08:08;101175.47;;;13.39
18713;BMP280;9485;49.386;8.674;2023-04-08T23:13:30;101175.69;;;13.35
18713;BMP280;9485;49.386;8.674;2023-04-08T23:18:51;101189.06;;;13.35
18713;BMP280;9485;49.386;8.674;2023-04-08T23:24:12;101183.41;;;13.35
18713;BMP280;9485;49.386;8.674;2023-04-08T23:29:33;101197.03;;;13.31
18713;BMP280;9485;49.386;8.674;2023-04-08T23:34:54;101194.19;;;13.31
18713;BMP280;9485;49.386;8.674;2023-04-08T23:40:15;101195.47;;;13.30
18713;BMP280;9485;49.386;8.674;2023-04-08T23:45:37;101199.31;;;13.27
18713;BMP280;9485;49.386;8.674;2023-04-08T23:50:58;101201.34;;;13.26
18713;BMP280;9485;49.386;8.674;2023-04-08T23:56:18;101184.25;;;13.21
